Time;durP1;ratioP1;P1;durP2;ratioP2;P2;SDS_P1;SDS_P2;PMS_P1;PMS_P2;Temp;Humidity;BMP_temperature;BMP_pressure;BME280_temperature;BME280_humidity;BME280_pressure;Samples;Min_cycle;Max_cycle;Signal;HPM_P1;HPM_P2
2021/07/30 00:00:12;;;;;;;20.23;6.50;;;16.90;99.90;;;;;;5096624;28;20036;-82
2021/07/30 00:02:41;;;;;;;24.70;6.13;;;16.90;99.90;;;;;;5081495;28;20060;-82
2021/07/30 00:05:09;;;;;;;23.00;6.50;;;16.90;99.90;;;;;;5084642;28;20058;-83
2021/07/30 00:07:38;;;;;;;21.27;7.22;;;16.90;99.90;;;;;;5085560;28;20117;-82
2021/07/30 00:10:08;;;;;;;21.88;6.63;;;17.00;99.90;;;;;;5081121;28;20049;-83
2021/07/30 00:12:41;;;;;;;22.40;7.72;;;16.20;99.90;;;;;;5100322;28;20350;-83
2021/07/30 00:15:09;;;;;;;15.82;6.32;;;16.90;99.90;;;;;;5065115;28;20044;-83
2021/07/30 00:17:37;;;;;;;23.40;7.07;;;16.90;99.90;;;;;;5066285;28;20049;-84
2021/07/30 00:20:06;;;;;;;20.23;7.07;;;16.90;99.90;;;;;;5061822;28;20045;-81
2021/07/30 00:22:33;;;;;;;15.27;6.75;;;16.90;99.90;;;;;;5046580;28;20418;-82
2021/07/30 00:25:04;;;;;;;17.65;7.13;;;16.90;99.90;;;;;;5063346;28;20045;-82
2021/07/30 00:27:38;;;;;;;17.70;6.57;;;16.90;99.90;;;;;;5069861;28;20045;-82
2021/07/30 00:30:07;;;;;;;12.43;6.43;;;16.90;99.90;;;;;;5087990;28;20041;-82
2021/07/30 00:32:35;;;;;;;22.77;7.43;;;16.90;99.90;;;;;;5064073;28;20541;-83
2021/07/30 00:35:03;;;;;;;15.32;5.68;;;16.90;99.90;;;;;;5063255;28;20037;-82
2021/07/30 00:37:34;;;;;;;18.45;7.10;;;16.90;99.90;;;;;;5065390;28;20053;-82
2021/07/30 00:40:04;;;;;;;15.70;5.85;;;16.90;99.90;;;;;;5059799;28;20061;-82
2021/07/30 00:42:32;;;;;;;21.90;6.57;;;16.90;99.90;;;;;;5073557;28;20044;-82
2021/07/30 00:45:02;;;;;;;19.85;6.35;;;17.00;99.90;;;;;;5072544;28;20045;-82
2021/07/30 00:47:31;;;;;;;23.13;6.30;;;17.00;99.90;;;;;;5063690;28;20045;-82
2021/07/30 00:50:00;;;;;;;18.60;6.10;;;17.00;99.90;;;;;;5061093;28;20056;-82
2021/07/30 00:52:28;;;;;;;19.27;6.57;;;17.00;99.90;;;;;;5066851;28;20056;-82
2021/07/30 00:54:57;;;;;;;18.20;6.90;;;17.00;99.90;;;;;;5067687;28;20059;-82
2021/07/30 00:57:26;;;;;;;21.88;5.93;;;17.00;99.90;;;;;;5062636;28;20041;-82
2021/07/30 00:59:53;;;;;;;23.17;6.40;;;17.00;99.90;;;;;;5061421;28;20037;-82
2021/07/30 01:02:22;;;;;;;13.43;5.85;;;17.00;99.90;;;;;;5091432;28;20061;-82
2021/07/30 01:04:50;;;;;;;18.92;7.20;;;17.00;99.90;;;;;;5062393;28;20414;-82
2021/07/30 01:07:18;;;;;;;17.50;6.30;;;17.00;99.90;;;;;;5061795;28;20083;-82
2021/07/30 01:09:46;;;;;;;14.55;6.25;;;17.00;99.90;;;;;;5073223;28;20048;-81
2021/07/30 01:12:15;;;;;;;21.85;6.63;;;17.00;99.90;;;;;;5061278;28;20053;-81
2021/07/30 01:14:43;;;;;;;14.77;6.50;;;17.00;99.90;;;;;;5077629;28;20033;-83
2021/07/30 01:17:11;;;;;;;21.08;6.85;;;17.00;99.90;;;;;;5063378;28;20059;-82
2021/07/30 01:19:45;;;;;;;14.88;5.25;;;17.00;99.90;;;;;;5079784;28;20033;-83
2021/07/30 01:22:23;;;;;;;20.63;7.05;;;17.00;99.90;;;;;;5081128;28;20052;-83
2021/07/30 01:24:51;;;;;;;12.40;5.35;;;16.90;99.90;;;;;;5092668;28;20296;-83
2021/07/30 01:27:20;;;;;;;17.55;6.70;;;16.90;99.90;;;;;;5068349;28;20570;-83
2021/07/30 01:29:49;;;;;;;13.98;5.72;;;16.90;99.90;;;;;;5082953;28;20047;-83
2021/07/30 01:32:17;;;;;;;16.85;5.93;;;16.80;99.90;;;;;;5087902;28;20044;-81
2021/07/30 01:34:45;;;;;;;17.02;5.85;;;16.80;99.90;;;;;;5077796;28;20044;-81
2021/07/30 01:37:14;;;;;;;15.13;6.53;;;16.80;99.90;;;;;;5080537;28;20052;-82
2021/07/30 01:39:42;;;;;;;24.98;6.93;;;16.70;99.90;;;;;;5094322;28;20052;-82
2021/07/30 01:42:10;;;;;;;19.15;6.25;;;16.70;99.90;;;;;;5094962;28;20055;-82
2021/07/30 01:44:38;;;;;;;14.70;5.90;;;16.70;99.90;;;;;;5082481;28;20317;-82
2021/07/30 01:47:07;;;;;;;16.83;7.43;;;16.60;99.90;;;;;;5086426;28;20051;-82
2021/07/30 01:49:35;;;;;;;13.60;5.57;;;16.60;99.90;;;;;;5086661;28;20048;-82
2021/07/30 01:52:04;;;;;;;17.08;7.28;;;16.60;99.90;;;;;;5093747;28;20044;-82
2021/07/30 01:54:32;;;;;;;17.90;5.88;;;16.60;99.90;;;;;;5075666;28;20055;-82
2021/07/30 01:57:01;;;;;;;15.70;5.63;;;16.60;99.90;;;;;;5079031;28;20056;-82
2021/07/30 01:59:30;;;;;;;12.15;4.78;;;16.50;99.90;;;;;;5084017;28;20053;-81
2021/07/30 02:01:58;;;;;;;16.23;5.68;;;16.50;99.90;;;;;;5100301;28;20044;-82
2021/07/30 02:04:26;;;;;;;15.90;4.78;;;16.50;99.90;;;;;;5108427;28;20048;-82
2021/07/30 02:06:54;;;;;;;14.45;5.53;;;16.50;99.90;;;;;;5094867;28;20052;-82
2021/07/30 02:09:22;;;;;;;16.05;5.57;;;16.50;99.90;;;;;;5099836;28;20048;-82
2021/07/30 02:11:51;;;;;;;18.42;5.25;;;16.50;99.90;;;;;;5097327;28;20055;-82
2021/07/30 02:14:20;;;;;;;15.70;7.30;;;16.50;99.90;;;;;;5091323;28;20044;-82
2021/07/30 02:16:50;;;;;;;16.58;6.13;;;16.50;99.90;;;;;;5095947;28;20059;-82
2021/07/30 02:19:19;;;;;;;14.52;5.55;;;16.50;99.90;;;;;;5088116;28;20040;-82
2021/07/30 02:21:49;;;;;;;18.48;6.05;;;16.50;99.90;;;;;;5106906;28;20041;-82
2021/07/30 02:24:17;;;;;;;14.57;6.75;;;16.50;99.90;;;;;;5103332;28;20048;-81
2021/07/30 02:26:46;;;;;;;12.95;5.68;;;16.50;99.90;;;;;;5085088;28;20051;-82
2021/07/30 02:29:14;;;;;;;14.80;6.38;;;16.50;99.90;;;;;;5084638;28;20045;-82
2021/07/30 02:31:42;;;;;;;15.07;5.60;;;16.50;99.90;;;;;;5073013;28;20044;-82
2021/07/30 02:34:10;;;;;;;10.95;5.22;;;16.50;99.90;;;;;;5084843;28;20059;-81
2021/07/30 02:36:43;;;;;;;18.67;6.22;;;16.50;99.90;;;;;;5084404;28;20054;-82
2021/07/30 02:39:11;;;;;;;18.40;6.18;;;16.50;99.90;;;;;;5095446;28;20036;-82
2021/07/30 02:41:40;;;;;;;19.50;6.93;;;16.40;99.90;;;;;;5071297;28;20055;-82
2021/07/30 02:44:07;;;;;;;15.63;5.97;;;16.40;99.90;;;;;;5103823;28;20048;-82
2021/07/30 02:46:35;;;;;;;17.05;7.00;;;16.40;99.90;;;;;;5088308;28;20052;-82
2021/07/30 02:49:03;;;;;;;12.23;5.50;;;16.40;99.90;;;;;;5084503;28;20048;-82
2021/07/30 02:51:31;;;;;;;17.55;7.13;;;16.40;99.90;;;;;;5070889;28;20047;-83
2021/07/30 02:53:59;;;;;;;16.05;6.05;;;16.40;99.90;;;;;;5094073;28;20040;-82
2021/07/30 02:56:27;;;;;;;20.88;6.05;;;16.40;99.90;;;;;;5096606;28;20047;-83
2021/07/30 02:58:56;;;;;;;23.70;6.97;;;16.40;99.90;;;;;;5089581;28;20045;-82
2021/07/30 03:01:24;;;;;;;13.70;5.43;;;16.40;99.90;;;;;;5059740;28;20063;-82
2021/07/30 03:03:52;;;;;;;21.75;6.97;;;16.40;99.90;;;;;;5074685;28;20041;-82
2021/07/30 03:06:20;;;;;;;18.08;6.53;;;16.40;99.90;;;;;;5073835;28;20048;-82
2021/07/30 03:08:48;;;;;;;18.45;6.68;;;16.40;99.90;;;;;;5086288;28;20051;-81
2021/07/30 03:11:16;;;;;;;21.05;6.13;;;16.40;99.90;;;;;;5091129;28;20509;-82
2021/07/30 03:13:45;;;;;;;18.40;7.45;;;16.40;99.90;;;;;;5075172;28;20047;-81
2021/07/30 03:16:13;;;;;;;16.75;6.22;;;16.40;99.90;;;;;;5097661;28;20432;-81
2021/07/30 03:18:44;;;;;;;21.13;7.82;;;16.40;99.90;;;;;;5088035;28;20040;-83
2021/07/30 03:21:12;;;;;;;23.88;7.55;;;16.40;99.90;;;;;;5080539;28;20064;-82
2021/07/30 03:23:40;;;;;;;20.60;6.57;;;15.80;99.90;;;;;;5087204;28;20062;-82
2021/07/30 03:26:08;;;;;;;17.88;6.65;;;16.40;99.90;;;;;;5121423;28;20056;-81
2021/07/30 03:28:36;;;;;;;22.10;6.57;;;16.40;99.90;;;;;;5096177;28;20204;-82
2021/07/30 03:31:05;;;;;;;19.17;6.78;;;16.40;99.90;;;;;;5103055;28;20056;-82
2021/07/30 03:33:33;;;;;;;21.45;7.05;;;16.40;99.90;;;;;;5074811;28;20055;-81
2021/07/30 03:36:01;;;;;;;18.00;6.90;;;16.40;99.90;;;;;;5093391;28;20458;-83
2021/07/30 03:38:29;;;;;;;12.38;6.45;;;16.40;99.90;;;;;;5085824;28;20044;-82
2021/07/30 03:41:04;;;;;;;20.73;6.90;;;16.40;99.90;;;;;;5100189;28;20052;-82
2021/07/30 03:43:32;;;;;;;15.57;6.82;;;16.40;99.90;;;;;;5106060;28;20036;-81
2021/07/30 03:46:00;;;;;;;16.55;6.93;;;16.40;99.90;;;;;;5094509;28;20045;-81
2021/07/30 03:48:29;;;;;;;15.13;6.82;;;16.30;99.90;;;;;;5096374;28;20042;-82
2021/07/30 03:50:58;;;;;;;17.30;6.95;;;16.30;99.90;;;;;;5096270;28;20043;-83
2021/07/30 03:53:26;;;;;;;24.95;8.45;;;16.30;99.90;;;;;;5091893;28;20051;-82
2021/07/30 03:55:54;;;;;;;17.23;6.85;;;16.30;99.90;;;;;;5091100;28;20499;-81
2021/07/30 03:58:22;;;;;;;19.45;7.93;;;16.20;99.90;;;;;;5085554;28;20052;-82
2021/07/30 04:00:50;;;;;;;16.63;7.57;;;16.20;99.90;;;;;;5089793;28;20048;-82
2021/07/30 04:03:18;;;;;;;19.75;8.50;;;16.20;99.90;;;;;;5094794;28;20040;-82
2021/07/30 04:05:48;;;;;;;22.80;8.43;;;16.20;99.90;;;;;;5088337;28;20070;-83
2021/07/30 04:08:16;;;;;;;18.52;7.88;;;16.20;99.90;;;;;;5087172;28;20056;-82
2021/07/30 04:10:45;;;;;;;16.58;9.40;;;16.20;99.90;;;;;;5087344;28;20045;-81
2021/07/30 04:13:12;;;;;;;15.90;6.43;;;16.10;99.90;;;;;;5087627;28;20057;-82
2021/07/30 04:15:41;;;;;;;14.05;7.70;;;16.20;99.90;;;;;;5090334;28;20048;-82
2021/07/30 04:18:10;;;;;;;24.60;7.53;;;16.10;99.90;;;;;;5110741;28;20057;-81
2021/07/30 04:20:39;;;;;;;17.10;6.63;;;16.10;99.90;;;;;;5053162;28;20048;-82
2021/07/30 04:23:07;;;;;;;22.08;7.38;;;16.10;99.90;;;;;;5104442;28;20059;-82
2021/07/30 04:25:41;;;;;;;10.75;6.43;;;16.10;99.90;;;;;;5063268;28;20036;-82
2021/07/30 04:28:12;;;;;;;13.93;6.32;;;16.10;99.90;;;;;;5110904;28;20044;-82
2021/07/30 04:30:40;;;;;;;10.63;5.10;;;16.10;99.90;;;;;;5095174;28;20044;-82
2021/07/30 04:33:09;;;;;;;13.50;5.15;;;16.10;99.90;;;;;;5115906;28;20056;-82
2021/07/30 04:35:38;;;;;;;13.38;6.97;;;16.10;99.90;;;;;;5087632;28;20044;-82
2021/07/30 04:38:07;;;;;;;14.32;6.85;;;16.10;99.90;;;;;;5096402;28;20369;-82
2021/07/30 04:40:40;;;;;;;14.25;7.13;;;16.10;99.90;;;;;;5101912;28;20058;-82
2021/07/30 04:43:08;;;;;;;11.07;5.20;;;16.10;99.90;;;;;;5082102;28;20056;-83
2021/07/30 04:45:37;;;;;;;7.90;4.40;;;16.10;99.90;;;;;;5087411;28;20047;-82
2021/07/30 04:48:05;;;;;;;11.20;5.47;;;15.70;99.90;;;;;;5085823;28;20048;-82
2021/07/30 04:50:38;;;;;;;16.00;5.57;;;16.10;99.90;;;;;;5089507;28;20039;-83
2021/07/30 04:53:08;;;;;;;9.77;5.07;;;16.10;99.90;;;;;;5119125;28;20059;-83
2021/07/30 04:55:36;;;;;;;10.57;5.15;;;16.10;99.90;;;;;;5084563;28;20048;-83
2021/07/30 04:58:05;;;;;;;10.35;4.07;;;16.20;99.90;;;;;;5077655;28;20048;-83
2021/07/30 05:00:33;;;;;;;10.82;5.65;;;16.20;99.90;;;;;;5117399;28;20040;-82
2021/07/30 05:03:02;;;;;;;13.10;4.55;;;16.20;99.90;;;;;;5113464;28;20299;-82
2021/07/30 05:05:31;;;;;;;8.43;3.70;;;16.30;99.90;;;;;;5110975;28;20048;-82
2021/07/30 05:08:00;;;;;;;12.07;5.35;;;16.30;99.90;;;;;;5119109;28;20044;-82
2021/07/30 05:10:29;;;;;;;11.98;4.00;;;17.10;99.90;;;;;;5087006;28;20051;-82
2021/07/30 05:12:57;;;;;;;9.07;3.78;;;16.30;99.90;;;;;;5070353;28;20215;-82
2021/07/30 05:15:25;;;;;;;13.55;4.18;;;16.30;99.90;;;;;;5078609;28;20040;-83
2021/07/30 05:17:54;;;;;;;11.13;4.78;;;16.50;99.90;;;;;;5114738;28;20054;-83
2021/07/30 05:20:25;;;;;;;16.65;5.85;;;16.40;99.90;;;;;;5099634;28;20044;-83
2021/07/30 05:22:54;;;;;;;11.07;4.13;;;16.40;99.90;;;;;;5064683;28;20043;-83
2021/07/30 05:25:23;;;;;;;12.23;4.80;;;16.50;99.90;;;;;;5128763;28;20050;-82
2021/07/30 05:27:51;;;;;;;8.02;4.38;;;16.50;99.90;;;;;;5090308;28;20052;-82
2021/07/30 05:30:19;;;;;;;9.57;5.07;;;16.40;99.90;;;;;;5107494;28;20044;-82
2021/07/30 05:32:47;;;;;;;14.63;5.35;;;16.40;99.90;;;;;;5103871;28;20048;-82
2021/07/30 05:35:16;;;;;;;13.45;5.32;;;16.50;99.90;;;;;;5081867;28;20062;-82
2021/07/30 05:37:46;;;;;;;20.00;4.68;;;16.50;99.90;;;;;;5107742;28;20044;-83
2021/07/30 05:40:14;;;;;;;11.23;4.07;;;16.50;99.90;;;;;;5086447;28;20040;-82
2021/07/30 05:42:42;;;;;;;20.85;5.18;;;16.50;99.90;;;;;;5100281;28;20060;-82
2021/07/30 05:45:13;;;;;;;9.05;4.85;;;16.40;99.90;;;;;;5074140;23;20049;-89
2021/07/30 05:48:15;;;;;;;12.77;4.82;;;16.40;99.90;;;;;;5046394;28;20052;-89
2021/07/30 05:51:01;;;;;;;14.95;3.85;;;16.40;99.90;;;;;;5054340;28;20063;-88
2021/07/30 05:53:31;;;;;;;15.65;4.10;;;16.40;99.90;;;;;;5066908;28;20049;-89
2021/07/30 05:56:32;;;;;;;16.05;4.68;;;16.30;99.90;;;;;;5061625;28;20053;-90
2021/07/30 05:59:48;;;;;;;14.80;5.28;;;16.20;99.90;;;;;;5075386;28;20037;-88
2021/07/30 06:02:19;;;;;;;18.77;4.05;;;16.20;99.90;;;;;;5035505;28;20039;-89
2021/07/30 06:05:00;;;;;;;9.60;3.90;;;16.10;99.90;;;;;;5056441;28;20247;-89
2021/07/30 06:07:35;;;;;;;16.33;5.07;;;16.10;99.90;;;;;;5084628;28;20051;-88
2021/07/30 06:10:08;;;;;;;15.77;3.45;;;16.10;99.90;;;;;;5053701;28;20059;-88
2021/07/30 06:12:42;;;;;;;15.68;5.20;;;16.10;99.90;;;;;;5053579;28;20546;-87
2021/07/30 06:15:41;;;;;;;19.67;4.75;;;16.10;99.90;;;;;;5088016;28;20047;-87
2021/07/30 06:18:38;;;;;;;20.02;5.20;;;16.10;99.90;;;;;;5071037;28;20415;-88
2021/07/30 06:21:33;;;;;;;14.57;3.67;;;16.20;99.90;;;;;;5067776;28;20048;-87
2021/07/30 06:24:10;;;;;;;10.90;3.88;;;16.30;99.90;;;;;;5064134;28;20049;-87
2021/07/30 06:26:52;;;;;;;20.83;4.93;;;16.30;99.90;;;;;;5069230;28;20037;-88
2021/07/30 06:29:27;;;;;;;21.00;6.20;;;16.30;99.90;;;;;;5044495;28;20288;-88
2021/07/30 06:32:04;;;;;;;24.40;4.75;;;16.20;99.90;;;;;;5032339;28;20045;-88
2021/07/30 06:34:35;;;;;;;;;;;16.20;99.90;;;;;;5018884;28;20061;-89
2021/07/30 06:37:15;;;;;;;25.42;5.47;;;16.30;99.90;;;;;;5048319;28;19920;-88
2021/07/30 06:39:54;;;;;;;16.55;4.07;;;16.30;99.90;;;;;;5057489;28;20053;-91
2021/07/30 06:42:22;;;;;;;21.45;4.30;;;16.30;99.90;;;;;;5025114;28;20047;-89
2021/07/30 06:44:51;;;;;;;26.15;7.13;;;16.30;99.90;;;;;;5045301;28;20060;-92
2021/07/30 06:47:23;;;;;;;22.45;4.47;;;16.30;99.90;;;;;;5025857;28;20048;-90
2021/07/30 06:49:53;;;;;;;20.85;5.00;;;16.30;99.90;;;;;;5024788;28;20496;-91
2021/07/30 06:52:23;;;;;;;11.80;6.00;;;16.30;99.90;;;;;;5033116;28;20056;-91
2021/07/30 06:54:54;;;;;;;27.30;5.07;;;16.40;99.90;;;;;;5034948;28;20049;-90
2021/07/30 06:57:24;;;;;;;27.63;5.53;;;16.40;99.90;;;;;;5031527;28;20045;-92
2021/07/30 07:00:00;;;;;;;25.95;4.68;;;16.50;99.90;;;;;;5029369;28;20045;-93
2021/07/30 07:02:30;;;;;;;27.10;4.78;;;16.60;99.90;;;;;;5045048;28;20049;-92
2021/07/30 07:04:59;;;;;;;34.03;10.05;;;16.80;99.90;;;;;;5061945;28;20044;-93
2021/07/30 07:07:29;;;;;;;33.92;8.05;;;16.90;99.90;;;;;;5048204;28;20061;-93
2021/07/30 07:09:57;;;;;;;18.58;5.40;;;17.00;99.90;;;;;;5043306;28;20050;-91
2021/07/30 07:12:31;;;;;;;22.50;5.88;;;17.00;99.90;;;;;;5020125;28;20357;-91
2021/07/30 07:15:02;;;;;;;18.88;4.40;;;17.10;99.90;;;;;;5008335;28;20053;-92
2021/07/30 07:17:32;;;;;;;19.75;4.32;;;16.80;99.90;;;;;;5037225;28;20041;-91
2021/07/30 07:20:04;;;;;;;15.25;5.03;;;17.10;99.90;;;;;;5041651;28;20479;-91
2021/07/30 07:22:45;;;;;;;26.30;6.75;;;17.00;99.90;;;;;;5024571;28;20052;-91
2021/07/30 07:25:25;;;;;;;19.17;3.70;;;17.10;99.90;;;;;;5008986;28;20057;-91
2021/07/30 07:27:56;;;;;;;13.77;3.95;;;17.10;99.90;;;;;;5051624;28;20045;-90
2021/07/30 07:30:28;;;;;;;26.02;5.65;;;17.10;99.90;;;;;;5023625;28;20049;-91
2021/07/30 07:32:58;;;;;;;22.45;5.50;;;17.00;99.90;;;;;;5023292;28;20060;-91
2021/07/30 07:35:29;;;;;;;19.77;3.20;;;17.10;99.90;;;;;;5042644;28;20049;-91
2021/07/30 07:38:06;;;;;;;19.90;4.80;;;17.20;99.90;;;;;;5040051;28;20468;-91
2021/07/30 07:40:39;;;;;;;23.08;5.82;;;17.30;99.90;;;;;;5040128;28;20061;-91
2021/07/30 07:43:08;;;;;;;17.75;4.60;;;17.40;99.90;;;;;;5022929;28;20053;-91
2021/07/30 07:45:38;;;;;;;18.75;4.28;;;17.50;99.90;;;;;;5041811;28;20057;-90
2021/07/30 07:48:06;;;;;;;17.88;3.97;;;17.60;99.90;;;;;;5028480;28;20063;-90
2021/07/30 07:50:36;;;;;;;13.18;3.65;;;17.60;99.90;;;;;;5037849;28;20183;-90
2021/07/30 07:53:14;;;;;;;24.92;6.00;;;17.70;99.90;;;;;;5040793;28;20228;-91
2021/07/30 07:55:42;;;;;;;21.85;4.93;;;17.70;99.90;;;;;;5036670;28;20053;-91
2021/07/30 07:58:13;;;;;;;18.25;4.05;;;17.70;99.90;;;;;;5042694;28;20050;-91
2021/07/30 08:00:41;;;;;;;13.52;5.07;;;17.70;99.90;;;;;;5041273;28;20056;-92
2021/07/30 08:03:12;;;;;;;16.10;3.55;;;17.70;99.90;;;;;;5040970;28;20068;-91
2021/07/30 08:05:41;;;;;;;19.55;4.45;;;17.60;99.90;;;;;;5024560;28;20613;-91
2021/07/30 08:08:11;;;;;;;18.67;6.25;;;17.50;99.90;;;;;;5004533;28;20649;-91
2021/07/30 08:10:40;;;;;;;17.20;3.35;;;17.40;99.90;;;;;;5024482;28;20078;-91
2021/07/30 08:13:09;;;;;;;15.15;4.55;;;17.40;99.90;;;;;;5040235;28;20050;-91
2021/07/30 08:15:41;;;;;;;28.73;4.28;;;17.30;99.90;;;;;;5017416;28;20783;-90
2021/07/30 08:18:11;;;;;;;17.10;4.00;;;17.30;99.90;;;;;;5053665;28;20041;-91
2021/07/30 08:20:41;;;;;;;18.00;4.65;;;17.20;99.90;;;;;;5040440;28;20591;-90
2021/07/30 08:23:11;;;;;;;23.55;3.85;;;17.20;99.90;;;;;;5039209;28;20045;-91
2021/07/30 08:25:39;;;;;;;18.65;3.70;;;17.20;99.90;;;;;;5027581;28;20068;-91
2021/07/30 08:28:09;;;;;;;25.60;5.15;;;17.30;99.90;;;;;;5044286;28;20049;-92
2021/07/30 08:30:55;;;;;;;24.38;4.95;;;17.20;99.90;;;;;;5024755;28;20048;-91
2021/07/30 08:33:23;;;;;;;14.68;3.90;;;17.20;99.90;;;;;;5042278;28;20037;-92
2021/07/30 08:35:53;;;;;;;23.30;5.40;;;17.30;99.90;;;;;;5053896;28;20562;-91
2021/07/30 08:38:26;;;;;;;22.63;5.72;;;17.20;99.90;;;;;;5032937;28;20045;-91
2021/07/30 08:41:03;;;;;;;21.33;4.40;;;17.10;99.90;;;;;;5025724;28;20061;-91
2021/07/30 08:43:37;;;;;;;21.40;3.38;;;17.20;99.90;;;;;;5047902;28;20053;-91
2021/07/30 08:46:07;;;;;;;16.92;5.35;;;17.20;99.90;;;;;;5035519;28;20050;-88
2021/07/30 08:48:40;;;;;;;24.83;4.75;;;17.90;99.90;;;;;;5023092;28;20061;-90
2021/07/30 08:51:09;;;;;;;14.50;3.97;;;17.40;99.90;;;;;;5006980;28;20057;-90
2021/07/30 08:53:40;;;;;;;23.98;6.13;;;17.50;99.90;;;;;;5037430;28;20057;-91
2021/07/30 08:56:09;;;;;;;13.38;5.35;;;16.40;99.90;;;;;;5037815;28;20504;-91
2021/07/30 08:58:42;;;;;;;18.98;4.75;;;17.70;99.90;;;;;;5021667;28;20042;-89
2021/07/30 09:01:13;;;;;;;23.97;4.90;;;17.70;99.90;;;;;;5018435;28;20042;-89
2021/07/30 09:03:44;;;;;;;14.15;3.78;;;17.70;99.90;;;;;;5022427;28;20057;-91
2021/07/30 09:06:24;;;;;;;25.73;4.85;;;17.70;99.90;;;;;;5017496;28;20056;-91
2021/07/30 09:09:08;;;;;;;16.55;4.65;;;17.70;99.90;;;;;;5041161;28;20064;-91
2021/07/30 09:11:43;;;;;;;20.23;4.15;;;17.60;99.90;;;;;;5025801;28;20406;-89
2021/07/30 09:14:13;;;;;;;17.08;3.28;;;17.50;99.90;;;;;;5032908;28;20056;-91
2021/07/30 09:16:51;;;;;;;16.42;4.18;;;17.40;99.90;;;;;;5039898;28;20645;-92
2021/07/30 09:20:01;;;;;;;24.73;4.07;;;17.30;99.90;;;;;;5033579;28;20046;-91
2021/07/30 09:22:59;;;;;;;18.70;8.55;;;17.30;99.90;;;;;;5026075;28;20064;-91
2021/07/30 09:25:38;;;;;;;20.83;6.20;;;17.40;99.90;;;;;;5019763;28;20057;-89
2021/07/30 09:28:10;;;;;;;20.90;5.50;;;17.50;99.90;;;;;;5024394;28;20057;-90
2021/07/30 09:30:39;;;;;;;26.17;5.18;;;17.50;99.90;;;;;;5024161;28;20040;-90
2021/07/30 09:33:31;;;;;;;20.65;4.53;;;17.50;99.90;;;;;;5025647;28;20050;-92
2021/07/30 09:36:10;;;;;;;22.20;5.22;;;17.50;99.90;;;;;;5023881;28;20057;-90
2021/07/30 09:38:42;;;;;;;15.05;4.47;;;17.40;99.90;;;;;;5027912;28;20046;-90
2021/07/30 09:41:14;;;;;;;20.98;6.82;;;17.30;99.90;;;;;;5028941;28;20041;-91
2021/07/30 09:44:06;;;;;;;;;;;17.20;99.90;;;;;;5019080;28;20054;-93
2021/07/30 09:46:41;;;;;;;25.48;5.60;;;16.40;99.90;;;;;;5032285;28;19927;-93
2021/07/30 09:49:46;;;;;;;16.75;3.80;;;17.30;99.90;;;;;;5041324;28;20041;-93
2021/07/30 09:52:28;;;;;;;24.20;4.65;;;17.40;99.90;;;;;;5030717;28;20041;-92
2021/07/30 09:55:21;;;;;;;19.50;6.18;;;17.40;99.90;;;;;;5047574;28;20065;-92
2021/07/30 09:57:52;;;;;;;21.02;6.45;;;17.50;99.90;;;;;;5059256;28;20041;-91
2021/07/30 10:00:22;;;;;;;11.93;3.22;;;17.60;99.90;;;;;;5017145;28;20050;-90
2021/07/30 10:02:56;;;;;;;14.50;3.28;;;17.70;99.90;;;;;;5017219;28;20054;-90
2021/07/30 10:05:27;;;;;;;24.40;3.75;;;17.70;99.90;;;;;;5047685;28;20067;-91
2021/07/30 10:08:06;;;;;;;29.38;4.85;;;17.00;99.90;;;;;;5041907;28;20052;-91
2021/07/30 10:10:41;;;;;;;18.08;4.13;;;17.70;99.90;;;;;;5028357;28;20054;-91
2021/07/30 10:13:16;;;;;;;14.88;4.28;;;17.80;99.90;;;;;;5045760;28;20048;-91
2021/07/30 10:16:00;;;;;;;22.50;5.57;;;17.50;99.90;;;;;;5042728;28;20281;-90
2021/07/30 10:18:34;;;;;;;16.23;4.65;;;18.00;99.90;;;;;;5018269;28;20042;-92
2021/07/30 10:21:03;;;;;;;21.15;5.68;;;18.00;99.90;;;;;;5014269;28;20050;-91
2021/07/30 10:23:39;;;;;;;27.55;6.03;;;18.00;99.90;;;;;;5027526;28;20053;-92
2021/07/30 10:26:07;;;;;;;21.05;4.18;;;18.10;99.90;;;;;;5031555;28;20182;-90
2021/07/30 10:28:41;;;;;;;15.93;3.28;;;18.10;99.90;;;;;;5033675;28;20053;-90
2021/07/30 10:31:12;;;;;;;25.42;5.75;;;18.20;99.90;;;;;;5042497;28;20041;-91
2021/07/30 10:33:43;;;;;;;14.88;3.63;;;18.30;99.90;;;;;;5049722;28;20059;-91
2021/07/30 10:36:33;;;;;;;23.20;4.20;;;18.30;99.90;;;;;;5049557;28;20404;-93
2021/07/30 10:39:07;;;;;;;14.02;5.20;;;18.30;99.90;;;;;;5036526;28;20057;-91
2021/07/30 10:41:36;;;;;;;;;;;18.20;99.90;;;;;;5047090;28;20057;-93
2021/07/30 10:44:10;;;;;;;16.77;5.15;;;18.20;99.90;;;;;;5041396;28;19921;-90
2021/07/30 10:46:42;;;;;;;17.15;3.80;;;17.20;99.90;;;;;;5019702;28;20065;-91
2021/07/30 10:49:41;;;;;;;19.02;4.43;;;18.10;99.90;;;;;;5033743;28;20054;-90
2021/07/30 10:52:29;;;;;;;15.05;3.97;;;18.10;99.90;;;;;;5035535;28;20045;-91
2021/07/30 10:55:05;;;;;;;13.13;3.55;;;18.20;99.90;;;;;;5034495;28;20061;-90
2021/07/30 10:57:50;;;;;;;11.57;2.75;;;18.30;99.90;;;;;;5003828;28;20050;-89
2021/07/30 11:00:20;;;;;;;19.55;4.60;;;18.40;99.90;;;;;;5023867;28;20053;-89
2021/07/30 11:03:01;;;;;;;20.88;3.97;;;18.50;99.90;;;;;;5008379;28;20037;-91
2021/07/30 11:05:31;;;;;;;16.67;5.18;;;18.60;99.90;;;;;;5032930;28;20069;-91
2021/07/30 11:08:08;;;;;;;11.48;4.13;;;18.60;99.90;;;;;;5006131;28;20042;-90
2021/07/30 11:10:41;;;;;;;15.98;3.58;;;18.70;99.90;;;;;;5008084;28;20060;-89
2021/07/30 11:13:25;;;;;;;18.42;4.13;;;18.80;99.90;;;;;;5020945;28;20050;-90
2021/07/30 11:16:06;;;;;;;16.88;3.15;;;18.80;99.90;;;;;;5005546;28;20038;-91
2021/07/30 11:18:45;;;;;;;10.70;3.45;;;18.80;99.90;;;;;;5022919;28;20053;-90
2021/07/30 11:21:15;;;;;;;16.98;3.72;;;18.90;99.90;;;;;;5037998;28;20049;-89
2021/07/30 11:23:46;;;;;;;14.38;4.10;;;19.00;99.90;;;;;;5018246;28;20046;-89
2021/07/30 11:26:14;;;;;;;11.55;3.67;;;19.10;99.90;;;;;;5006684;28;20045;-89
2021/07/30 11:28:42;;;;;;;20.25;4.30;;;19.20;99.90;;;;;;5037029;28;20053;-91
2021/07/30 11:31:15;;;;;;;23.70;5.72;;;19.10;99.90;;;;;;5021390;28;20041;-91
2021/07/30 11:33:45;;;;;;;22.15;4.65;;;19.20;99.90;;;;;;5012200;28;20050;-89
2021/07/30 11:36:19;;;;;;;22.65;4.00;;;19.20;99.90;;;;;;5018435;28;20084;-90
2021/07/30 11:38:56;;;;;;;14.13;4.07;;;19.30;99.90;;;;;;4996763;28;20129;-90
2021/07/30 11:41:27;;;;;;;25.63;4.25;;;19.40;99.90;;;;;;5027519;28;20050;-91
2021/07/30 11:44:08;;;;;;;15.48;3.78;;;19.60;99.90;;;;;;5021963;28;20055;-91
2021/07/30 11:46:40;;;;;;;17.63;4.43;;;19.80;99.90;;;;;;5023578;28;20045;-91
2021/07/30 11:49:14;;;;;;;15.13;4.38;;;19.90;99.90;;;;;;5036130;28;20057;-86
2021/07/30 11:51:44;;;;;;;12.82;3.30;;;20.10;99.90;;;;;;5017400;28;20057;-90
2021/07/30 11:54:24;;;;;;;15.65;3.35;;;20.20;99.90;;;;;;5033360;28;20041;-90
2021/07/30 11:56:57;;;;;;;22.48;3.80;;;20.40;99.90;;;;;;5035967;28;20488;-89
2021/07/30 11:59:46;;;;;;;16.23;4.03;;;20.40;99.90;;;;;;5018721;28;20517;-91
2021/07/30 12:02:16;;;;;;;18.83;3.50;;;20.40;99.90;;;;;;5039259;28;20045;-91
2021/07/30 12:05:04;;;;;;;15.73;3.67;;;20.40;99.90;;;;;;5045793;28;20052;-92
2021/07/30 12:07:36;;;;;;;22.55;5.63;;;20.20;99.90;;;;;;5002464;28;20056;-90
2021/07/30 12:10:16;;;;;;;16.40;3.72;;;19.90;99.90;;;;;;5034927;28;20065;-90
2021/07/30 12:12:48;;;;;;;16.98;4.53;;;20.10;99.90;;;;;;5025021;28;20054;-93
2021/07/30 12:15:25;;;;;;;20.70;4.50;;;20.00;99.90;;;;;;5023458;28;20045;-91
2021/07/30 12:18:06;;;;;;;12.57;3.90;;;19.90;99.90;;;;;;5026407;28;20045;-93
2021/07/30 12:20:43;;;;;;;;;;;19.90;99.90;;;;;;5046725;28;20060;-93
2021/07/30 12:24:51;;;;;;;17.48;4.90;;;19.80;99.90;;;;;;5046742;28;19927;-94
2021/07/30 12:28:24;;;;;;;18.20;4.72;;;18.00;99.90;;;;;;5058519;28;20053;-93
2021/07/30 12:31:33;;;;;;;25.25;5.63;;;19.70;99.90;;;;;;4984260;28;20046;-92
2021/07/30 12:34:37;;;;;;;15.82;4.10;;;19.40;99.90;;;;;;5007789;28;20206;-93
2021/07/30 12:37:16;;;;;;;13.68;3.42;;;18.50;99.90;;;;;;4981540;28;20061;-88
2021/07/30 12:40:27;;;;;;;24.05;4.30;;;19.40;99.90;;;;;;4996947;28;20034;-94
2021/07/30 12:48:13;;;;;;;15.43;3.50;;;20.10;99.90;;;;;;5109908;22;20058;-85
2021/07/30 12:50:44;;;;;;;13.40;5.35;;;20.50;99.90;;;;;;5077646;28;20056;-84
2021/07/30 12:53:24;;;;;;;11.48;3.17;;;20.70;99.90;;;;;;5084069;28;20043;-85
2021/07/30 12:55:55;;;;;;;21.33;3.75;;;20.80;99.90;;;;;;5071404;28;20051;-87
2021/07/30 12:58:26;;;;;;;9.07;3.33;;;20.80;99.90;;;;;;5081333;28;20055;-86
2021/07/30 13:00:57;;;;;;;10.75;2.47;;;20.80;99.90;;;;;;5088411;28;20036;-86
2021/07/30 13:03:28;;;;;;;9.23;2.22;;;20.90;99.90;;;;;;5085555;28;20040;-90
2021/07/30 13:05:59;;;;;;;12.18;2.42;;;21.00;99.90;;;;;;5084335;28;20066;-87
2021/07/30 13:08:29;;;;;;;6.18;2.17;;;21.00;99.90;;;;;;5084815;28;20036;-84
2021/07/30 13:11:03;;;;;;;7.07;1.85;;;21.10;99.90;;;;;;5098120;28;20516;-87
2021/07/30 13:13:47;;;;;;;10.13;1.52;;;20.30;99.90;;;;;;5069501;28;20058;-86